Time;durP1;ratioP1;P1;durP2;ratioP2;P2;SDS_P1;SDS_P2;PMS_P1;PMS_P2;Temp;Humidity;BMP_temperature;BMP_pressure;BME280_temperature;BME280_humidity;BME280_pressure;Samples;Min_cycle;Max_cycle;Signal;HPM_P1;HPM_P2
2021/07/31 00:02:22;;;;;;;;;;;;;;;17.25;100.00;98064.84;5061292;28;19947;-84
2021/07/31 00:04:50;;;;;;;;;;;;;;;17.17;100.00;98075.00;5095388;28;20313;-84
2021/07/31 00:07:17;;;;;;;;;;;;;;;16.96;100.00;98071.34;5095946;28;19974;-84
2021/07/31 00:09:44;;;;;;;;;;;;;;;16.91;100.00;98066.41;5057819;28;19924;-84
2021/07/31 00:12:11;;;;;;;;;;;;;;;16.89;100.00;98071.00;5075075;28;20329;-83
2021/07/31 00:14:39;;;;;;;;;;;;;;;17.23;100.00;98073.81;5058541;28;19932;-85
2021/07/31 00:17:07;;;;;;;;;;;;;;;16.73;100.00;98074.31;5074766;28;20015;-85
2021/07/31 00:19:35;;;;;;;;;;;;;;;17.10;100.00;98079.00;5075511;28;20767;-84
2021/07/31 00:22:03;;;;;;;;;;;;;;;16.93;100.00;98083.63;5058240;28;19924;-84
2021/07/31 00:24:32;;;;;;;;;;;;;;;16.73;100.00;98088.41;5074485;28;20295;-84
2021/07/31 00:26:59;;;;;;;;;;;;;;;16.76;100.00;98091.03;5073458;28;20031;-84
2021/07/31 00:29:26;;;;;;;;;;;;;;;16.96;100.00;98090.31;5071041;28;19932;-84
2021/07/31 00:31:55;;;;;;;;;;;;;;;17.03;100.00;98081.44;5074451;28;19924;-84
2021/07/31 00:34:22;;;;;;;;;;;;;;;16.97;100.00;98084.19;5076015;28;19924;-85
2021/07/31 00:36:49;;;;;;;;;;;;;;;16.58;100.00;98087.63;5087580;28;19924;-84
2021/07/31 00:39:16;;;;;;;;;;;;;;;16.79;100.00;98100.56;5075205;28;19925;-84
2021/07/31 00:41:46;;;;;;;;;;;;;;;16.92;100.00;98086.94;5073863;28;20394;-85
2021/07/31 00:44:13;;;;;;;;;;;;;;;16.90;100.00;98089.47;5085933;28;20018;-84
2021/07/31 00:46:41;;;;;;;;;;;;;;;16.95;100.00;98074.66;5042860;28;19930;-85
2021/07/31 00:49:09;;;;;;;;;;;;;;;17.19;100.00;98089.41;5073080;28;19925;-84
2021/07/31 00:51:36;;;;;;;;;;;;;;;16.75;100.00;98094.34;5074120;28;19925;-84
2021/07/31 00:54:04;;;;;;;;;;;;;;;16.57;100.00;98078.41;5073699;28;19924;-84
2021/07/31 00:56:32;;;;;;;;;;;;;;;17.07;100.00;98084.84;5057098;28;19929;-85
2021/07/31 00:59:00;;;;;;;;;;;;;;;16.67;100.00;98081.91;5073668;28;20019;-84
2021/07/31 01:01:29;;;;;;;;;;;;;;;16.64;100.00;98077.22;5083838;28;20023;-85
2021/07/31 01:03:57;;;;;;;;;;;;;;;16.72;100.00;98075.56;5077687;28;19924;-84
2021/07/31 01:06:24;;;;;;;;;;;;;;;16.91;100.00;98068.44;5056968;28;19924;-85
2021/07/31 01:08:51;;;;;;;;;;;;;;;16.74;100.00;98070.19;5070998;28;19931;-85
2021/07/31 01:11:22;;;;;;;;;;;;;;;17.13;100.00;98069.53;5057578;28;20414;-86
2021/07/31 01:13:53;;;;;;;;;;;;;;;17.25;100.00;98076.91;5089959;28;19924;-85
2021/07/31 01:16:21;;;;;;;;;;;;;;;17.38;100.00;98077.34;5082190;28;19932;-85
2021/07/31 01:18:48;;;;;;;;;;;;;;;17.27;100.00;98071.53;5057200;28;19929;-85
2021/07/31 01:21:30;;;;;;;;;;;;;;;17.07;100.00;98070.75;5073502;28;20269;-84
2021/07/31 01:23:58;;;;;;;;;;;;;;;16.81;100.00;98061.34;5067023;28;19993;-85
2021/07/31 01:26:26;;;;;;;;;;;;;;;16.89;100.00;98071.75;5074327;28;19964;-85
2021/07/31 01:29:00;;;;;;;;;;;;;;;16.92;100.00;98058.72;5074367;28;19973;-85
2021/07/31 01:31:27;;;;;;;;;;;;;;;16.99;100.00;98066.78;5072886;28;20734;-85
2021/07/31 01:34:20;;;;;;;;;;;;;;;16.56;100.00;98064.78;5073175;28;19924;-85
2021/07/31 01:36:48;;;;;;;;;;;;;;;16.90;100.00;98067.66;5043508;28;19924;-86
2021/07/31 01:39:17;;;;;;;;;;;;;;;16.81;100.00;98070.56;5070439;28;19925;-85
2021/07/31 01:41:44;;;;;;;;;;;;;;;17.00;100.00;98071.91;5073651;28;19928;-85
2021/07/31 01:44:12;;;;;;;;;;;;;;;16.95;100.00;98069.03;5056516;28;19928;-86
2021/07/31 01:46:40;;;;;;;;;;;;;;;17.28;100.00;98067.44;5056168;28;20303;-86
2021/07/31 01:49:07;;;;;;;;;;;;;;;17.39;100.00;98064.78;5056090;28;20367;-86
2021/07/31 01:51:40;;;;;;;;;;;;;;;17.08;100.00;98061.00;5043283;28;20379;-85
2021/07/31 01:54:09;;;;;;;;;;;;;;;17.13;100.00;98063.91;5084087;28;19970;-85
2021/07/31 01:56:36;;;;;;;;;;;;;;;16.99;100.00;98061.13;5072955;28;20027;-85
2021/07/31 01:59:04;;;;;;;;;;;;;;;17.18;100.00;98063.22;5056049;28;19924;-86
2021/07/31 02:01:32;;;;;;;;;;;;;;;17.28;100.00;98066.69;5056374;28;20402;-85
2021/07/31 02:04:01;;;;;;;;;;;;;;;16.96;100.00;98067.75;5043043;28;19924;-84
2021/07/31 02:06:48;;;;;;;;;;;;;;;17.28;100.00;98073.09;5086671;28;19928;-84
2021/07/31 02:09:17;;;;;;;;;;;;;;;17.10;100.00;98066.94;5072604;28;19924;-85
2021/07/31 02:11:45;;;;;;;;;;;;;;;17.04;100.00;98074.56;5039910;28;20389;-85
2021/07/31 02:14:13;;;;;;;;;;;;;;;17.04;100.00;98074.56;5055989;28;20294;-85
2021/07/31 02:16:46;;;;;;;;;;;;;;;17.02;100.00;98080.69;5072656;28;20299;-84
2021/07/31 02:19:17;;;;;;;;;;;;;;;17.14;100.00;98082.41;5072544;28;19995;-84
2021/07/31 02:21:53;;;;;;;;;;;;;;;17.33;100.00;98082.91;5086055;28;20440;-85
2021/07/31 02:24:52;;;;;;;;;;;;;;;17.13;100.00;98077.25;5009851;28;20007;-84
2021/07/31 02:27:28;;;;;;;;;;;;;;;17.09;100.00;98080.25;4998008;28;19930;-84
2021/07/31 02:30:04;;;;;;;;;;;;;;;17.16;100.00;98079.09;4979413;28;19926;-84
2021/07/31 02:32:32;;;;;;;;;;;;;;;17.03;100.00;98087.09;4980181;28;20392;-84
2021/07/31 02:35:02;;;;;;;;;;;;;;;17.13;100.00;98074.44;5006245;28;19933;-85
2021/07/31 02:37:34;;;;;;;;;;;;;;;16.98;100.00;98074.44;4994649;28;19926;-84
2021/07/31 02:40:26;;;;;;;;;;;;;;;16.87;100.00;98085.59;4979199;28;20428;-84
2021/07/31 02:42:54;;;;;;;;;;;;;;;17.09;100.00;98082.31;4979150;28;19934;-84
2021/07/31 02:45:21;;;;;;;;;;;;;;;17.08;100.00;98075.13;5011542;28;19926;-84
2021/07/31 02:47:59;;;;;;;;;;;;;;;16.83;100.00;98078.56;5009049;28;20376;-84
2021/07/31 02:50:28;;;;;;;;;;;;;;;16.80;100.00;98076.72;5021030;28;20059;-84
2021/07/31 02:53:06;;;;;;;;;;;;;;;16.86;100.00;98074.75;4978276;28;19988;-84
2021/07/31 02:55:34;;;;;;;;;;;;;;;17.27;100.00;98077.19;4994605;28;19925;-85
2021/07/31 02:58:01;;;;;;;;;;;;;;;17.47;100.00;98077.25;4999161;28;19975;-84
2021/07/31 03:00:30;;;;;;;;;;;;;;;16.92;100.00;98084.13;5041690;28;19925;-83
2021/07/31 03:02:57;;;;;;;;;;;;;;;16.96;100.00;98079.03;5072201;28;20369;-84
2021/07/31 03:05:24;;;;;;;;;;;;;;;17.07;100.00;98093.31;5071943;28;19924;-84
2021/07/31 03:08:01;;;;;;;;;;;;;;;16.79;100.00;98100.56;5046517;28;20319;-83
2021/07/31 03:10:29;;;;;;;;;;;;;;;16.87;100.00;98096.06;5078973;28;20295;-84
2021/07/31 03:12:56;;;;;;;;;;;;;;;17.34;100.00;98101.41;5084376;28;20268;-84
2021/07/31 03:15:24;;;;;;;;;;;;;;;17.23;100.00;98095.59;5059032;28;19925;-84
2021/07/31 03:17:51;;;;;;;;;;;;;;;17.10;100.00;98092.34;5059096;28;19932;-83
2021/07/31 03:20:19;;;;;;;;;;;;;;;17.11;100.00;98105.19;5075596;28;19924;-84
2021/07/31 03:22:52;;;;;;;;;;;;;;;17.26;100.00;98103.88;5076823;28;20054;-84
2021/07/31 03:25:19;;;;;;;;;;;;;;;17.23;100.00;98101.25;5075739;28;20278;-84
2021/07/31 03:27:46;;;;;;;;;;;;;;;17.03;100.00;98104.00;5058919;28;19971;-84
2021/07/31 03:30:41;;;;;;;;;;;;;;;16.99;100.00;98104.25;5045390;28;19932;-84
2021/07/31 03:33:12;;;;;;;;;;;;;;;16.73;100.00;98110.97;5076833;28;19931;-84
2021/07/31 03:35:42;;;;;;;;;;;;;;;16.81;100.00;98112.91;5089569;28;19948;-84
2021/07/31 03:38:31;;;;;;;;;;;;;;;17.15;100.00;98105.75;5059031;28;19956;-84
2021/07/31 03:40:59;;;;;;;;;;;;;;;17.23;100.00;98113.31;5089098;28;20019;-84
2021/07/31 03:43:33;;;;;;;;;;;;;;;17.10;100.00;98112.09;5075016;28;19933;-84
2021/07/31 03:46:06;;;;;;;;;;;;;;;17.28;100.00;98097.75;5026748;28;19928;-84
2021/07/31 03:48:34;;;;;;;;;;;;;;;16.84;100.00;98114.75;5070190;28;20314;-84
2021/07/31 03:51:03;;;;;;;;;;;;;;;16.45;100.00;98118.19;5042768;28;19963;-84
2021/07/31 03:53:37;;;;;;;;;;;;;;;16.53;100.00;98113.69;5087338;28;19924;-84
2021/07/31 03:56:05;;;;;;;;;;;;;;;16.36;100.00;98121.06;5074945;28;20436;-84
2021/07/31 03:58:35;;;;;;;;;;;;;;;16.31;100.00;98116.09;5045280;28;19932;-84
2021/07/31 04:01:03;;;;;;;;;;;;;;;16.41;100.00;98126.00;5087390;28;19928;-84
2021/07/31 04:03:30;;;;;;;;;;;;;;;16.13;100.00;98117.81;5076739;28;20015;-84
2021/07/31 04:06:00;;;;;;;;;;;;;;;16.30;100.00;98125.81;5074671;28;19925;-84
2021/07/31 04:08:42;;;;;;;;;;;;;;;16.60;100.00;98121.78;5060000;28;19924;-85
2021/07/31 04:11:44;;;;;;;;;;;;;;;16.52;100.00;98126.25;5089709;28;19932;-84
2021/07/31 04:14:30;;;;;;;;;;;;;;;16.49;100.00;98121.56;5072244;28;20019;-84
2021/07/31 04:17:04;;;;;;;;;;;;;;;16.74;100.00;98115.34;5075443;28;19924;-84
2021/07/31 04:19:32;;;;;;;;;;;;;;;16.75;100.00;98111.25;5074569;28;19924;-85
2021/07/31 04:22:01;;;;;;;;;;;;;;;16.72;100.00;98112.25;5071309;28;19931;-84
2021/07/31 04:24:36;;;;;;;;;;;;;;;16.55;100.00;98108.34;5058752;28;19931;-84
2021/07/31 04:27:04;;;;;;;;;;;;;;;16.63;100.00;98118.00;5075575;28;20041;-84
2021/07/31 04:29:31;;;;;;;;;;;;;;;16.51;100.00;98116.25;5079499;28;19931;-84
2021/07/31 04:31:58;;;;;;;;;;;;;;;16.45;100.00;98112.53;5082703;28;19928;-84
2021/07/31 04:34:29;;;;;;;;;;;;;;;16.58;100.00;98110.19;5074179;28;19925;-84
2021/07/31 04:36:57;;;;;;;;;;;;;;;16.48;100.00;98103.09;5041145;28;20552;-85
2021/07/31 04:39:24;;;;;;;;;;;;;;;16.68;100.00;98111.63;5074075;28;20019;-84
2021/07/31 04:41:51;;;;;;;;;;;;;;;16.52;100.00;98109.31;5074154;28;19979;-84
2021/07/31 04:44:19;;;;;;;;;;;;;;;16.59;100.00;98106.88;5073935;28;19952;-84
2021/07/31 04:46:46;;;;;;;;;;;;;;;16.35;100.00;98108.22;5057564;28;19969;-84
2021/07/31 04:49:13;;;;;;;;;;;;;;;16.58;100.00;98115.84;5073980;28;19932;-85
2021/07/31 04:51:40;;;;;;;;;;;;;;;16.69;100.00;98119.63;5074948;28;20445;-85
2021/07/31 04:54:07;;;;;;;;;;;;;;;17.03;100.00;98120.94;5074179;28;19925;-85
2021/07/31 04:56:35;;;;;;;;;;;;;;;16.36;100.00;98124.63;5037922;28;19925;-84
2021/07/31 04:59:02;;;;;;;;;;;;;;;16.70;100.00;98120.41;5083503;28;19931;-85
2021/07/31 05:01:30;;;;;;;;;;;;;;;16.80;100.00;98119.81;5057332;28;19928;-84
2021/07/31 05:03:57;;;;;;;;;;;;;;;16.63;100.00;98112.34;5057059;28;20379;-85
2021/07/31 05:06:25;;;;;;;;;;;;;;;17.01;100.00;98129.16;5056996;28;19930;-85
2021/07/31 05:08:53;;;;;;;;;;;;;;;16.79;100.00;98123.13;5073304;28;19924;-85
2021/07/31 05:11:21;;;;;;;;;;;;;;;16.79;100.00;98123.91;5040277;28;19932;-85
2021/07/31 05:13:50;;;;;;;;;;;;;;;16.81;100.00;98121.34;5059357;28;20456;-85
2021/07/31 05:16:17;;;;;;;;;;;;;;;16.93;100.00;98128.75;5069110;28;19971;-85
2021/07/31 05:18:45;;;;;;;;;;;;;;;16.80;100.00;98124.66;5058389;28;19928;-85
2021/07/31 05:21:12;;;;;;;;;;;;;;;16.39;100.00;98134.94;5073619;28;19924;-85
2021/07/31 05:23:39;;;;;;;;;;;;;;;16.63;100.00;98132.09;5060894;28;20015;-85
2021/07/31 05:26:07;;;;;;;;;;;;;;;16.53;100.00;98139.06;5070564;28;19924;-86
2021/07/31 05:28:34;;;;;;;;;;;;;;;16.63;100.00;98137.72;5073216;28;19928;-85
2021/07/31 05:31:03;;;;;;;;;;;;;;;16.65;100.00;98129.53;5056960;28;19985;-85
2021/07/31 05:33:30;;;;;;;;;;;;;;;17.00;100.00;98136.03;5081710;28;19924;-86
2021/07/31 05:35:57;;;;;;;;;;;;;;;16.95;100.00;98131.09;5039901;28;19924;-87
2021/07/31 05:38:25;;;;;;;;;;;;;;;17.25;100.00;98138.25;5073258;28;19963;-85
2021/07/31 05:40:52;;;;;;;;;;;;;;;17.12;100.00;98135.72;5056357;28;19925;-83
2021/07/31 05:43:19;;;;;;;;;;;;;;;17.33;100.00;98145.03;5076177;28;20606;-84
2021/07/31 05:45:47;;;;;;;;;;;;;;;17.61;100.00;98140.59;5074021;28;19931;-86
2021/07/31 05:48:15;;;;;;;;;;;;;;;17.48;100.00;98137.31;5057437;28;19931;-84
2021/07/31 05:50:42;;;;;;;;;;;;;;;17.38;100.00;98135.84;5072983;28;19974;-84
2021/07/31 05:53:10;;;;;;;;;;;;;;;17.18;100.00;98133.78;5073302;28;19977;-85
2021/07/31 05:55:38;;;;;;;;;;;;;;;17.20;100.00;98130.47;5056525;28;19925;-88
2021/07/31 05:58:05;;;;;;;;;;;;;;;17.24;100.00;98129.00;5073154;28;20371;-86
2021/07/31 06:00:33;;;;;;;;;;;;;;;17.11;100.00;98139.03;5056193;28;19985;-86
2021/07/31 06:03:00;;;;;;;;;;;;;;;17.13;100.00;98130.88;5073133;28;19928;-85
2021/07/31 06:05:27;;;;;;;;;;;;;;;16.51;100.00;98135.97;5056029;28;20393;-85
2021/07/31 06:07:57;;;;;;;;;;;;;;;16.75;100.00;98147.94;5036483;28;19928;-86
2021/07/31 06:10:24;;;;;;;;;;;;;;;16.50;100.00;98145.69;5073091;28;19930;-86
2021/07/31 06:12:56;;;;;;;;;;;;;;;16.40;100.00;98147.00;5056841;28;19925;-85
2021/07/31 06:15:29;;;;;;;;;;;;;;;16.79;100.00;98151.31;5073035;28;19932;-89
2021/07/31 06:17:56;;;;;;;;;;;;;;;16.65;100.00;98146.47;5056474;28;19924;-88
2021/07/31 06:20:23;;;;;;;;;;;;;;;16.44;100.00;98150.44;5056092;28;19947;-87
2021/07/31 06:22:50;;;;;;;;;;;;;;;16.67;100.00;98156.00;5073817;28;19928;-88
2021/07/31 06:25:18;;;;;;;;;;;;;;;17.24;100.00;98147.97;5047098;28;19924;-86
2021/07/31 06:27:45;;;;;;;;;;;;;;;17.56;100.00;98153.38;5074479;28;19931;-86
2021/07/31 06:30:13;;;;;;;;;;;;;;;17.63;100.00;98155.00;5072406;28;20472;-89
2021/07/31 06:32:40;;;;;;;;;;;;;;;17.22;100.00;98158.97;5055610;28;20010;-89
2021/07/31 06:35:07;;;;;;;;;;;;;;;17.36;100.00;98158.16;5035854;28;19925;-87
2021/07/31 06:37:35;;;;;;;;;;;;;;;17.09;100.00;98158.50;5069420;28;20011;-88
2021/07/31 06:40:07;;;;;;;;;;;;;;;17.21;100.00;98161.03;5061462;28;19970;-89
2021/07/31 06:42:35;;;;;;;;;;;;;;;17.10;100.00;98154.44;5058783;28;19924;-91
2021/07/31 06:45:03;;;;;;;;;;;;;;;16.68;100.00;98163.19;5072948;28;19928;-92
2021/07/31 06:47:30;;;;;;;;;;;;;;;16.23;100.00;98166.41;5026751;28;19932;-90
2021/07/31 06:49:57;;;;;;;;;;;;;;;16.67;100.00;98177.78;5027667;28;19972;-93
2021/07/31 06:52:25;;;;;;;;;;;;;;;16.43;100.00;98179.88;5077116;28;19928;-88
2021/07/31 06:54:52;;;;;;;;;;;;;;;16.65;100.00;98180.31;5063925;28;19924;-91
2021/07/31 06:57:20;;;;;;;;;;;;;;;17.16;100.00;98172.22;5085348;28;19950;-92
2021/07/31 06:59:48;;;;;;;;;;;;;;;16.98;100.00;98169.63;5059357;28;19977;-93
2021/07/31 07:02:15;;;;;;;;;;;;;;;17.08;100.00;98173.88;5036009;28;19928;-91
2021/07/31 07:04:42;;;;;;;;;;;;;;;16.98;100.00;98164.75;5074223;28;19924;-86
2021/07/31 07:07:09;;;;;;;;;;;;;;;17.35;100.00;98171.50;5076237;28;20372;-90
2021/07/31 07:09:37;;;;;;;;;;;;;;;17.60;100.00;98168.06;5055762;28;20059;-89
2021/07/31 07:12:04;;;;;;;;;;;;;;;16.80;100.00;98164.16;5059104;28;19924;-89
2021/07/31 07:14:31;;;;;;;;;;;;;;;17.30;100.00;98171.41;5076165;28;19932;-91
2021/07/31 07:17:03;;;;;;;;;;;;;;;17.14;100.00;98171.94;5075914;28;19924;-89
2021/07/31 07:19:30;;;;;;;;;;;;;;;16.82;100.00;98167.28;5059555;28;20791;-88
2021/07/31 07:21:57;;;;;;;;;;;;;;;16.60;100.00;98172.53;5087534;28;19929;-91
2021/07/31 07:24:25;;;;;;;;;;;;;;;16.90;100.00;98182.56;5051809;28;19924;-83
2021/07/31 07:26:53;;;;;;;;;;;;;;;17.24;100.00;98170.53;5075453;28;19925;-86
2021/07/31 07:29:20;;;;;;;;;;;;;;;17.50;100.00;98165.84;5075713;28;20014;-84
2021/07/31 07:31:47;;;;;;;;;;;;;;;17.50;100.00;98165.84;5044193;28;19932;-85
2021/07/31 07:34:15;;;;;;;;;;;;;;;17.30;100.00;98171.41;5071551;28;19928;-84
2021/07/31 07:36:42;;;;;;;;;;;;;;;16.78;100.00;98178.00;5084620;28;19924;-84
2021/07/31 07:39:09;;;;;;;;;;;;;;;16.82;100.00;98189.84;5059033;28;19925;-83
2021/07/31 07:41:37;;;;;;;;;;;;;;;17.33;100.00;98184.53;5079298;28;20392;-84
2021/07/31 07:44:04;;;;;;;;;;;;;;;17.26;100.00;98180.09;5058619;28;19928;-85
2021/07/31 07:46:32;;;;;;;;;;;;;;;16.89;100.00;98181.78;5078725;28;19924;-84
2021/07/31 07:48:59;;;;;;;;;;;;;;;17.00;100.00;98178.38;5057662;28;19924;-77
2021/07/31 07:51:26;;;;;;;;;;;;;;;17.04;100.00;98178.97;5074803;28;19925;-87
2021/07/31 07:53:54;;;;;;;;;;;;;;;17.32;100.00;98197.13;5039686;28;19978;-87
2021/07/31 07:56:21;;;;;;;;;;;;;;;17.39;100.00;98191.84;5104680;28;19924;-86
2021/07/31 07:58:53;;;;;;;;;;;;;;;17.42;100.00;98182.38;5074645;28;19932;-88
2021/07/31 08:01:20;;;;;;;;;;;;;;;17.35;100.00;98190.47;5074815;28;20307;-86
2021/07/31 08:03:48;;;;;;;;;;;;;;;17.87;100.00;98187.44;5062202;28;20313;-88
2021/07/31 08:06:17;;;;;;;;;;;;;;;17.70;100.00;98185.66;5080274;28;19935;-87
2021/07/31 08:08:44;;;;;;;;;;;;;;;17.61;100.00;98182.97;5070527;28;19931;-86
2021/07/31 08:11:12;;;;;;;;;;;;;;;18.18;100.00;98198.13;5061203;28;19928;-90
2021/07/31 08:13:39;;;;;;;;;;;;;;;18.15;100.00;98187.78;5063316;28;19929;-87
2021/07/31 08:16:07;;;;;;;;;;;;;;;18.19;100.00;98198.91;5040417;28;19929;-86
2021/07/31 08:18:34;;;;;;;;;;;;;;;17.64;100.00;98190.44;5059970;28;19969;-87
2021/07/31 08:21:02;;;;;;;;;;;;;;;17.58;100.00;98192.41;5061435;28;19925;-88
2021/07/31 08:23:30;;;;;;;;;;;;;;;18.14;100.00;98197.56;5073389;28;20302;-89
2021/07/31 08:25:57;;;;;;;;;;;;;;;17.88;100.00;98193.88;5078356;28;19928;-89
2021/07/31 08:28:24;;;;;;;;;;;;;;;17.39;100.00;98199.53;5084559;28;20288;-89
2021/07/31 08:30:51;;;;;;;;;;;;;;;17.59;100.00;98213.72;5073255;28;19924;-88
2021/07/31 08:33:19;;;;;;;;;;;;;;;18.37;100.00;98209.91;5065318;28;19971;-90
2021/07/31 08:35:47;;;;;;;;;;;;;;;17.93;100.00;98198.81;5059166;28;20393;-88
2021/07/31 08:38:14;;;;;;;;;;;;;;;18.57;100.00;98196.53;5063634;28;20061;-89
2021/07/31 08:40:42;;;;;;;;;;;;;;;18.18;100.00;98208.63;5080105;28;19928;-89
2021/07/31 08:43:09;;;;;;;;;;;;;;;18.05;100.00;98211.03;5089919;28;20061;-89
2021/07/31 08:45:38;;;;;;;;;;;;;;;18.33;100.00;98210.13;5039851;28;19928;-89
2021/07/31 08:48:07;;;;;;;;;;;;;;;18.10;100.00;98213.19;5074017;28;20413;-88
2021/07/31 08:50:35;;;;;;;;;;;;;;;18.01;100.00;98216.91;5056203;28;20287;-87
2021/07/31 08:53:03;;;;;;;;;;;;;;;18.51;100.00;98209.09;5070078;28;19976;-89
2021/07/31 08:55:30;;;;;;;;;;;;;;;18.33;100.00;98215.78;5082177;28;19924;-88
2021/07/31 08:58:01;;;;;;;;;;;;;;;18.62;100.00;98209.19;5078790;28;20410;-89
2021/07/31 09:00:28;;;;;;;;;;;;;;;18.96;100.00;98217.53;5076146;28;19935;-90
2021/07/31 09:02:56;;;;;;;;;;;;;;;18.17;100.00;98207.09;5076009;28;19930;-88
2021/07/31 09:05:38;;;;;;;;;;;;;;;18.14;100.00;98220.16;5056003;28;20023;-87
2021/07/31 09:08:05;;;;;;;;;;;;;;;18.56;100.00;98206.31;5055713;28;20397;-87
2021/07/31 09:10:40;;;;;;;;;;;;;;;18.87;100.00;98216.94;5055493;28;19925;-88
2021/07/31 09:13:12;;;;;;;;;;;;;;;19.10;100.00;98213.81;5072417;28;20391;-88
2021/07/31 09:15:41;;;;;;;;;;;;;;;18.93;100.00;98220.59;5073039;28;19924;-87
2021/07/31 09:18:20;;;;;;;;;;;;;;;18.69;100.00;98220.09;5065960;28;20320;-86
2021/07/31 09:21:06;;;;;;;;;;;;;;;18.53;100.00;98218.63;5034107;28;19924;-88
2021/07/31 09:23:44;;;;;;;;;;;;;;;18.64;100.00;98224.41;5063245;28;19924;-88
2021/07/31 09:26:12;;;;;;;;;;;;;;;18.27;100.00;98231.91;5055756;28;19925;-88
2021/07/31 09:28:42;;;;;;;;;;;;;;;19.02;100.00;98226.84;5072182;28;19932;-89
2021/07/31 09:31:13;;;;;;;;;;;;;;;18.88;100.00;98233.41;5043942;28;19945;-88
2021/07/31 09:33:41;;;;;;;;;;;;;;;18.93;100.00;98232.66;5063956;28;20383;-87
2021/07/31 09:36:09;;;;;;;;;;;;;;;18.80;100.00;98226.63;5069303;28;19931;-88
2021/07/31 09:38:37;;;;;;;;;;;;;;;18.85;100.00;98223.09;5065695;28;20381;-88
2021/07/31 09:41:23;;;;;;;;;;;;;;;19.04;100.00;98212.97;5044959;28;19925;-87
2021/07/31 09:43:58;;;;;;;;;;;;;;;19.07;100.00;98216.84;5081169;28;19939;-89
2021/07/31 09:46:35;;;;;;;;;;;;;;;19.66;100.00;98221.50;5071972;28;19935;-89
2021/07/31 09:49:03;;;;;;;;;;;;;;;18.95;100.00;98220.84;5083848;28;19924;-87
2021/07/31 09:51:32;;;;;;;;;;;;;;;18.35;100.00;98223.75;5054320;28;20431;-88
2021/07/31 09:54:03;;;;;;;;;;;;;;;19.08;100.00;98233.38;5038400;28;19928;-88
2021/07/31 09:56:33;;;;;;;;;;;;;;;19.30;100.00;98222.25;5075173;28;20010;-88
2021/07/31 09:59:00;;;;;;;;;;;;;;;19.30;100.00;98213.75;5075080;28;20378;-88
2021/07/31 10:01:28;;;;;;;;;;;;;;;18.83;100.00;98217.16;5075227;28;20379;-87
2021/07/31 10:03:56;;;;;;;;;;;;;;;18.98;100.00;98209.31;5055000;28;19925;-88
2021/07/31 10:06:23;;;;;;;;;;;;;;;18.48;100.00;98210.09;5088339;28;19947;-88
2021/07/31 10:08:51;;;;;;;;;;;;;;;18.67;100.00;98214.13;5071448;28;19936;-87
2021/07/31 10:11:18;;;;;;;;;;;;;;;18.80;100.00;98206.81;5051459;28;19929;-86
2021/07/31 10:13:46;;;;;;;;;;;;;;;18.67;100.00;98206.44;5070891;28;20512;-86
2021/07/31 10:16:16;;;;;;;;;;;;;;;18.20;100.00;98215.38;5054898;28;19925;-87
2021/07/31 10:19:01;;;;;;;;;;;;;;;18.29;100.00;98232.19;5054544;28;20006;-86
2021/07/31 10:21:30;;;;;;;;;;;;;;;18.83;100.00;98233.34;5072381;28;19974;-86
2021/07/31 10:24:07;;;;;;;;;;;;;;;18.34;100.00;98234.31;5076379;28;19929;-87
2021/07/31 10:26:35;;;;;;;;;;;;;;;17.75;100.00;98244.28;5063241;28;20001;-86
2021/07/31 10:29:21;;;;;;;;;;;;;;;18.13;100.00;98249.69;5053377;28;19928;-86
2021/07/31 10:31:49;;;;;;;;;;;;;;;18.05;100.00;98223.13;5070367;28;19974;-88
2021/07/31 10:34:36;;;;;;;;;;;;;;;17.84;100.00;98247.00;5068635;28;19931;-86
2021/07/31 10:37:23;;;;;;;;;;;;;;;18.55;100.00;98244.38;5071404;28;19928;-87
2021/07/31 10:39:50;;;;;;;;;;;;;;;18.41;100.00;98239.56;5074035;28;19924;-86
2021/07/31 10:42:17;;;;;;;;;;;;;;;19.28;100.00;98244.63;5054693;28;19928;-88
2021/07/31 10:45:03;;;;;;;;;;;;;;;19.92;100.00;98246.91;5051925;28;19931;-88
2021/07/31 10:47:30;;;;;;;;;;;;;;;19.45;100.00;98225.72;5044469;28;19968;-88
2021/07/31 10:49:57;;;;;;;;;;;;;;;19.70;100.00;98222.03;5070747;28;19941;-88
2021/07/31 10:52:43;;;;;;;;;;;;;;;19.67;100.00;98234.38;5071159;28;19936;-85
2021/07/31 10:55:11;;;;;;;;;;;;;;;19.84;100.00;98236.56;5041320;28;19932;-89
2021/07/31 10:57:53;;;;;;;;;;;;;;;20.01;100.00;98226.09;5054537;28;20399;-88
2021/07/31 11:00:27;;;;;;;;;;;;;;;19.79;100.00;98220.28;5041745;28;19947;-88
2021/07/31 11:03:03;;;;;;;;;;;;;;;20.07;100.00;98226.91;5051733;28;19928;-86
2021/07/31 11:05:51;;;;;;;;;;;;;;;19.44;100.00;98229.06;5078781;28;19924;-86
2021/07/31 11:08:19;;;;;;;;;;;;;;;19.23;100.00;98230.41;5053972;28;19928;-87
2021/07/31 11:10:47;;;;;;;;;;;;;;;18.76;100.00;98243.06;5071027;28;19955;-88
2021/07/31 11:13:17;;;;;;;;;;;;;;;18.82;100.00;98235.41;5063818;28;20003;-89
2021/07/31 11:15:59;;;;;;;;;;;;;;;18.81;100.00;98239.50;5054351;28;19924;-88
2021/07/31 11:18:39;;;;;;;;;;;;;;;18.84;100.00;98241.31;5087351;28;19963;-86
2021/07/31 11:21:26;;;;;;;;;;;;;;;19.12;100.00;98250.91;5064448;28;19931;-87
2021/07/31 11:23:58;;;;;;;;;;;;;;;18.78;100.00;98248.97;5084602;28;20374;-88
2021/07/31 11:26:36;;;;;;;;;;;;;;;18.99;100.00;98253.31;5070891;28;20026;-89
2021/07/31 11:29:11;;;;;;;;;;;;;;;18.43;100.00;98265.31;5087878;28;19986;-88
2021/07/31 11:31:39;;;;;;;;;;;;;;;17.80;100.00;98263.34;5096467;28;19984;-88
2021/07/31 11:34:09;;;;;;;;;;;;;;;17.87;100.00;98279.91;5093696;28;19924;-87
2021/07/31 11:36:37;;;;;;;;;;;;;;;17.91;100.00;98291.78;5057893;28;19925;-88
2021/07/31 11:39:09;;;;;;;;;;;;;;;17.75;100.00;98290.25;5074299;28;20041;-87
2021/07/31 11:41:37;;;;;;;;;;;;;;;17.28;100.00;98286.88;5061250;28;19938;-88
2021/07/31 11:44:05;;;;;;;;;;;;;;;17.77;100.00;98286.94;5057917;28;19930;-87
2021/07/31 11:46:41;;;;;;;;;;;;;;;17.79;100.00;98290.06;5040938;28;19977;-88
2021/07/31 11:49:08;;;;;;;;;;;;;;;18.38;100.00;98291.47;5057747;28;19928;-88
2021/07/31 11:51:41;;;;;;;;;;;;;;;18.35;100.00;98291.63;5057881;28;19930;-89
2021/07/31 11:54:09;;;;;;;;;;;;;;;18.59;100.00;98295.84;5057451;28;20414;-88
2021/07/31 11:56:37;;;;;;;;;;;;;;;18.83;100.00;98287.09;5057317;28;19946;-89
2021/07/31 11:59:08;;;;;;;;;;;;;;;19.01;100.00;98281.91;5057462;28;19924;-88
2021/07/31 12:01:36;;;;;;;;;;;;;;;19.41;100.00;98295.22;5073879;28;20011;-89
2021/07/31 12:04:04;;;;;;;;;;;;;;;19.58;100.00;98296.16;5040908;28;20291;-88
2021/07/31 12:06:42;;;;;;;;;;;;;;;19.35;100.00;98295.16;5087867;28;19963;-88
2021/07/31 12:09:12;;;;;;;;;;;;;;;19.56;100.00;98282.47;5057183;28;20371;-88
2021/07/31 12:11:42;;;;;;;;;;;;;;;19.99;100.00;98289.00;5059248;28;19924;-89
2021/07/31 12:14:28;;;;;;;;;;;;;;;19.96;100.00;98283.53;5085220;28;19924;-89
2021/07/31 12:17:17;;;;;;;;;;;;;;;19.84;100.00;98284.75;5057008;28;19925;-89
2021/07/31 12:19:46;;;;;;;;;;;;;;;20.00;100.00;98287.69;5037192;28;20217;-89
2021/07/31 12:22:14;;;;;;;;;;;;;;;20.10;100.00;98274.09;5054316;28;19924;-88
2021/07/31 12:24:42;;;;;;;;;;;;;;;20.24;100.00;98287.34;5073541;28;19931;-89
2021/07/31 12:27:09;;;;;;;;;;;;;;;19.70;100.00;98286.44;5073644;28;20343;-89
2021/07/31 12:29:38;;;;;;;;;;;;;;;20.08;100.00;98283.13;5076085;28;19936;-89
2021/07/31 12:32:20;;;;;;;;;;;;;;;20.35;100.00;98284.56;5073369;28;19963;-89
2021/07/31 12:34:47;;;;;;;;;;;;;;;20.32;100.00;98286.38;5073458;28;20583;-89
2021/07/31 12:37:25;;;;;;;;;;;;;;;20.42;100.00;98290.53;5070226;28;20330;-89
2021/07/31 12:39:53;;;;;;;;;;;;;;;20.59;100.00;98293.47;5052160;28;19931;-89
2021/07/31 12:42:21;;;;;;;;;;;;;;;20.64;100.00;98289.88;5058332;28;19925;-89
2021/07/31 12:44:48;;;;;;;;;;;;;;;20.69;100.00;98286.28;5068769;28;19925;-89
2021/07/31 12:47:17;;;;;;;;;;;;;;;20.71;100.00;98290.16;5085903;28;19924;-90
2021/07/31 12:49:44;;;;;;;;;;;;;;;20.57;100.00;98285.47;5082101;28;20398;-89
2021/07/31 12:52:11;;;;;;;;;;;;;;;20.87;100.00;98285.84;5042004;28;20338;-90